createdAt,value
2023-01-19T00:01:41.856Z,-2.15
2023-01-19T00:04:11.882Z,-2.15
2023-01-19T00:06:41.093Z,-2.14
2023-01-19T00:09:09.610Z,-2.13
2023-01-19T00:11:37.870Z,-2.14
2023-01-19T00:14:06.557Z,-2.14
2023-01-19T00:16:35.001Z,-2.13
2023-01-19T00:19:03.294Z,-2.10
2023-01-19T00:21:33.025Z,-2.08
2023-01-19T00:24:01.221Z,-2.06
2023-01-19T00:26:29.253Z,-2.04
2023-01-19T00:28:57.724Z,-2.02
2023-01-19T00:31:25.852Z,-2.00
2023-01-19T00:33:54.255Z,-1.99
2023-01-19T00:36:22.400Z,-1.99
2023-01-19T00:38:52.196Z,-1.99
2023-01-19T00:41:40.261Z,-1.99
2023-01-19T00:44:07.755Z,-2.01
2023-01-19T00:46:35.836Z,-2.02
2023-01-19T00:49:03.983Z,-2.03
2023-01-19T00:51:32.410Z,-2.07
2023-01-19T00:54:04.997Z,-2.08
2023-01-19T00:56:33.219Z,-2.11
2023-01-19T00:59:01.473Z,-2.12
2023-01-19T01:01:45.332Z,-2.13
2023-01-19T01:04:14.486Z,-2.18
2023-01-19T01:06:42.774Z,-2.23
2023-01-19T01:09:13.070Z,-2.28
2023-01-19T01:11:41.208Z,-2.31
2023-01-19T01:14:09.615Z,-2.34
2023-01-19T01:16:37.873Z,-2.40
2023-01-19T01:19:05.938Z,-2.46
2023-01-19T01:21:35.870Z,-2.49
2023-01-19T01:24:04.061Z,-2.52
2023-01-19T01:26:33.838Z,-2.55
2023-01-19T01:29:02.073Z,-2.58
2023-01-19T01:31:31.945Z,-2.59
2023-01-19T01:34:00.267Z,-2.58
2023-01-19T01:36:33.526Z,-2.59
2023-01-19T01:39:01.668Z,-2.59
2023-01-19T01:41:30.913Z,-2.58
2023-01-19T01:44:01.948Z,-2.58
2023-01-19T01:46:31.199Z,-2.57
2023-01-19T01:49:04.501Z,-2.59
2023-01-19T01:51:35.227Z,-2.61
2023-01-19T01:54:06.962Z,-2.61
2023-01-19T01:56:36.717Z,-2.62
2023-01-19T01:59:08.534Z,-2.62
2023-01-19T02:01:54.692Z,-2.61
2023-01-19T02:04:24.552Z,-2.61
2023-01-19T02:07:10.095Z,-2.60
2023-01-19T02:09:56.648Z,-2.61
2023-01-19T02:12:47.930Z,-2.63
2023-01-19T02:15:18.398Z,-2.63
2023-01-19T02:17:46.771Z,-2.63
2023-01-19T02:20:15.233Z,-2.66
2023-01-19T02:22:46.687Z,-2.69
2023-01-19T02:25:16.683Z,-2.71
2023-01-19T02:27:44.905Z,-2.71
2023-01-19T02:30:14.501Z,-2.69
2023-01-19T02:32:42.542Z,-2.67
2023-01-19T02:35:11.490Z,-2.66
2023-01-19T02:37:41.369Z,-2.63
2023-01-19T02:40:11.483Z,-2.62
2023-01-19T02:42:43.789Z,-2.58
2023-01-19T02:45:14.571Z,-2.56
2023-01-19T02:47:45.165Z,-2.55
2023-01-19T02:50:35.764Z,-2.52
2023-01-19T02:53:08.753Z,-2.50
2023-01-19T02:55:37.704Z,-2.47
2023-01-19T02:58:10.948Z,-2.47
2023-01-19T03:00:44.324Z,-2.42
2023-01-19T03:03:21.806Z,-2.40
2023-01-19T03:05:57.032Z,-2.39
2023-01-19T03:08:32.521Z,-2.35
2023-01-19T03:11:03.505Z,-2.34
2023-01-19T03:13:39.518Z,-2.33
2023-01-19T03:16:12.931Z,-2.32
2023-01-19T03:18:48.656Z,-2.30
2023-01-19T03:21:19.789Z,-2.28
2023-01-19T03:23:48.899Z,-2.27
2023-01-19T03:26:19.433Z,-2.24
2023-01-19T03:28:50.132Z,-2.24
2023-01-19T03:31:21.284Z,-2.21
2023-01-19T03:33:51.632Z,-2.21
2023-01-19T03:36:21.808Z,-2.20
2023-01-19T03:38:51.258Z,-2.20
2023-01-19T03:41:20.692Z,-2.17
2023-01-19T03:43:52.036Z,-2.17
2023-01-19T03:46:22.118Z,-2.15
2023-01-19T03:48:51.016Z,-2.15
2023-01-19T03:51:39.154Z,-2.15
2023-01-19T03:54:07.829Z,-2.15
2023-01-19T03:56:36.067Z,-2.13
2023-01-19T03:59:06.096Z,-2.13
2023-01-19T04:01:34.407Z,-2.12
2023-01-19T04:04:02.815Z,-2.12
2023-01-19T04:06:32.111Z,-2.11
2023-01-19T04:09:00.232Z,-2.10
2023-01-19T04:11:28.526Z,-2.10
2023-01-19T04:13:56.675Z,-2.11
2023-01-19T04:16:26.430Z,-2.11
2023-01-19T04:18:54.479Z,-2.09
2023-01-19T04:21:22.753Z,-2.09
2023-01-19T04:23:51.100Z,-2.09
2023-01-19T04:26:19.530Z,-2.10
2023-01-19T04:28:47.785Z,-2.08
2023-01-19T04:31:16.162Z,-2.09
2023-01-19T04:33:45.765Z,-2.08
2023-01-19T04:36:13.857Z,-2.05
2023-01-19T04:38:42.217Z,-2.04
2023-01-19T04:41:10.869Z,-2.01
2023-01-19T04:43:38.916Z,-2.00
2023-01-19T04:46:07.221Z,-1.99
2023-01-19T04:48:35.315Z,-2.00
2023-01-19T04:51:05.019Z,-1.96
2023-01-19T04:53:33.390Z,-1.96
2023-01-19T04:56:01.542Z,-1.96
2023-01-19T04:58:29.750Z,-1.96
2023-01-19T05:00:57.843Z,-1.97
2023-01-19T05:03:26.705Z,-1.98
2023-01-19T05:05:55.221Z,-1.99
2023-01-19T05:08:24.799Z,-2.00
2023-01-19T05:10:53.418Z,-2.00
2023-01-19T05:13:21.557Z,-1.99
2023-01-19T05:15:50.484Z,-2.01
2023-01-19T05:18:18.791Z,-2.00
2023-01-19T05:20:47.033Z,-1.98
2023-01-19T05:23:15.170Z,-1.96
2023-01-19T05:25:46.007Z,-1.94
2023-01-19T05:28:15.365Z,-1.93
2023-01-19T05:30:43.539Z,-1.91
2023-01-19T05:33:11.847Z,-1.92
2023-01-19T05:35:40.364Z,-1.93
2023-01-19T05:38:08.413Z,-1.95
2023-01-19T05:40:36.563Z,-1.98
2023-01-19T05:43:06.077Z,-1.98
2023-01-19T05:45:34.417Z,-2.01
2023-01-19T05:48:02.480Z,-2.03
2023-01-19T05:50:30.746Z,-2.06
2023-01-19T05:52:59.168Z,-2.14
2023-01-19T05:55:28.391Z,-2.20
2023-01-19T05:57:56.469Z,-2.27
2023-01-19T06:00:27.689Z,-2.33
2023-01-19T06:02:55.911Z,-2.37
2023-01-19T06:05:24.078Z,-2.42
2023-01-19T06:07:52.757Z,-2.40
2023-01-19T06:10:21.035Z,-2.44
2023-01-19T06:12:49.778Z,-2.48
2023-01-19T06:15:18.140Z,-2.52
2023-01-19T06:17:47.887Z,-2.62
2023-01-19T06:20:16.124Z,-2.72
2023-01-19T06:22:44.151Z,-2.79
2023-01-19T06:25:13.181Z,-2.86
2023-01-19T06:27:44.413Z,-2.93
2023-01-19T06:30:13.531Z,-2.98
2023-01-19T06:32:41.774Z,-3.00
2023-01-19T06:35:12.688Z,-3.03
2023-01-19T06:37:41.095Z,-3.07
2023-01-19T06:40:09.807Z,-3.08
2023-01-19T06:42:38.116Z,-3.09
2023-01-19T06:45:06.836Z,-3.12
2023-01-19T06:47:35.051Z,-3.15
2023-01-19T06:50:03.638Z,-3.17
2023-01-19T06:52:33.140Z,-3.18
2023-01-19T06:55:01.280Z,-3.23
2023-01-19T06:57:29.617Z,-3.24
2023-01-19T06:59:59.757Z,-3.28
2023-01-19T07:02:28.866Z,-3.35
2023-01-19T07:04:57.120Z,-3.42
2023-01-19T07:07:25.349Z,-3.44
2023-01-19T07:09:55.467Z,-3.45
2023-01-19T07:12:23.805Z,-3.49
2023-01-19T07:14:52.852Z,-3.52
2023-01-19T07:17:21.062Z,-3.52
2023-01-19T07:19:49.390Z,-3.54
2023-01-19T07:22:17.664Z,-3.59
2023-01-19T07:24:45.782Z,-3.58
2023-01-19T07:27:16.649Z,-3.60
2023-01-19T07:29:44.811Z,-3.60
2023-01-19T07:32:12.948Z,-3.61
2023-01-19T07:34:41.220Z,-3.65
2023-01-19T07:37:09.303Z,-3.64
2023-01-19T07:39:37.721Z,-3.62
2023-01-19T07:42:05.942Z,-3.61
2023-01-19T07:44:35.539Z,-3.60
2023-01-19T07:47:06.177Z,-3.59
2023-01-19T07:49:35.826Z,-3.59
2023-01-19T07:52:03.877Z,-3.58
2023-01-19T07:54:32.259Z,-3.60
2023-01-19T07:57:00.987Z,-3.60
2023-01-19T07:59:30.397Z,-3.61
2023-01-19T08:02:00.568Z,-3.66
2023-01-19T08:04:28.749Z,-3.68
2023-01-19T08:06:57.340Z,-3.72
2023-01-19T08:09:25.593Z,-3.76
2023-01-19T08:11:53.645Z,-3.82
2023-01-19T08:14:21.824Z,-3.84
2023-01-19T08:16:50.236Z,-3.96
2023-01-19T08:19:20.762Z,-4.02
2023-01-19T08:21:49.083Z,-3.58
2023-01-19T08:24:19.779Z,-3.47
2023-01-19T08:26:48.316Z,-3.35
2023-01-19T08:29:16.903Z,-3.27
2023-01-19T08:31:45.595Z,-3.18
2023-01-19T08:34:14.001Z,-3.18
2023-01-19T08:36:43.474Z,-3.26
2023-01-19T08:39:12.369Z,-3.33
2023-01-19T08:41:40.404Z,-3.34
2023-01-19T08:44:08.610Z,-3.34
2023-01-19T08:46:37.011Z,-3.37
2023-01-19T08:49:05.135Z,-3.41
2023-01-19T08:51:33.316Z,-3.42
2023-01-19T08:54:02.890Z,-3.52
2023-01-19T08:56:31.693Z,-3.56
2023-01-19T08:59:09.169Z,-3.58
2023-01-19T09:01:39.168Z,-3.60
2023-01-19T09:04:08.095Z,-3.59
2023-01-19T09:06:36.415Z,-3.57
2023-01-19T09:09:06.028Z,-3.56
2023-01-19T09:11:35.157Z,-3.58
2023-01-19T09:14:04.413Z,-3.57
2023-01-19T09:16:32.618Z,-3.56
2023-01-19T09:19:00.643Z,-3.53
2023-01-19T09:21:28.940Z,-3.52
2023-01-19T09:23:57.864Z,-3.48
2023-01-19T09:26:27.509Z,-3.43
2023-01-19T09:28:55.816Z,-3.35
2023-01-19T09:31:24.324Z,-3.30
2023-01-19T09:33:52.664Z,-3.26
2023-01-19T09:36:20.849Z,-3.21
2023-01-19T09:38:49.219Z,-3.17
2023-01-19T09:41:21.158Z,-3.13
2023-01-19T09:43:53.312Z,-3.08
2023-01-19T09:46:24.724Z,-3.05
2023-01-19T09:48:53.802Z,-2.97
2023-01-19T09:51:23.939Z,-2.86
2023-01-19T09:54:01.470Z,-2.70
2023-01-19T09:56:30.419Z,-2.52
2023-01-19T09:59:00.654Z,-2.33
2023-01-19T10:01:41.770Z,-2.06
2023-01-19T10:04:18.900Z,-1.77
2023-01-19T10:06:48.614Z,-1.32
2023-01-19T10:09:20.997Z,-0.91
2023-01-19T10:11:57.820Z,-0.43
2023-01-19T10:14:33.257Z,0.06
2023-01-19T10:17:12.241Z,0.44
2023-01-19T10:19:49.655Z,0.82
2023-01-19T10:22:25.418Z,1.10
2023-01-19T10:24:56.937Z,1.31
2023-01-19T10:27:27.611Z,1.66
2023-01-19T10:29:59.664Z,1.78
2023-01-19T10:32:31.585Z,1.77
2023-01-19T10:35:02.081Z,1.64
2023-01-19T10:37:33.105Z,1.58
2023-01-19T10:40:06.560Z,1.62
2023-01-19T10:42:39.563Z,1.78
2023-01-19T10:45:17.377Z,2.01
2023-01-19T10:47:47.993Z,2.02
2023-01-19T10:50:34.048Z,2.05
2023-01-19T10:53:05.890Z,2.35
2023-01-19T10:55:37.798Z,2.38
2023-01-19T10:58:07.134Z,2.47
2023-01-19T11:00:40.749Z,2.69
2023-01-19T11:03:24.080Z,3.15
2023-01-19T11:05:53.356Z,3.68
2023-01-19T11:08:23.299Z,4.19
2023-01-19T11:10:57.815Z,4.63
2023-01-19T11:13:27.214Z,5.24
2023-01-19T11:16:00.934Z,5.71
2023-01-19T11:18:32.538Z,6.22
2023-01-19T11:21:02.976Z,6.64
2023-01-19T11:23:33.732Z,7.11
2023-01-19T11:26:04.155Z,7.59
2023-01-19T11:28:38.273Z,7.93
2023-01-19T11:31:20.851Z,8.39
2023-01-19T11:33:53.544Z,8.83
2023-01-19T11:36:23.839Z,9.08
2023-01-19T11:38:53.103Z,9.29
2023-01-19T11:41:22.375Z,9.42
2023-01-19T11:43:53.117Z,9.40
2023-01-19T11:46:24.426Z,9.70
2023-01-19T11:48:58.107Z,9.80
2023-01-19T11:51:29.167Z,10.10
2023-01-19T11:53:57.255Z,10.36
2023-01-19T11:56:28.335Z,10.62
2023-01-19T11:58:57.016Z,10.55
2023-01-19T12:01:29.764Z,10.77
2023-01-19T12:04:00.780Z,10.88
2023-01-19T12:06:32.310Z,11.00
2023-01-19T12:09:03.558Z,11.23
2023-01-19T12:11:34.586Z,11.07
2023-01-19T12:14:03.459Z,11.15
2023-01-19T12:16:34.726Z,10.97
2023-01-19T12:19:05.379Z,10.62
2023-01-19T12:21:33.617Z,10.62
2023-01-19T12:24:08.703Z,10.45
2023-01-19T12:26:38.662Z,10.39
2023-01-19T12:29:13.012Z,10.51
2023-01-19T12:31:44.077Z,10.56
2023-01-19T12:34:40.721Z,10.59
2023-01-19T12:37:29.193Z,10.21
2023-01-19T12:39:58.453Z,10.14
2023-01-19T12:42:27.705Z,9.92
2023-01-19T12:45:05.501Z,9.75
2023-01-19T12:47:35.950Z,9.71
2023-01-19T12:50:07.083Z,9.59
2023-01-19T12:52:37.318Z,9.29
2023-01-19T12:55:16.780Z,9.29
2023-01-19T12:57:50.606Z,9.26
2023-01-19T13:00:30.289Z,9.11
2023-01-19T13:03:01.181Z,8.98
2023-01-19T13:05:59.368Z,8.81
2023-01-19T13:08:30.000Z,8.46
2023-01-19T13:11:19.796Z,8.30
2023-01-19T13:14:06.773Z,8.03
2023-01-19T13:16:59.086Z,7.77
2023-01-19T13:19:44.969Z,7.67
2023-01-19T13:22:32.226Z,7.53
2023-01-19T13:25:07.820Z,7.10
2023-01-19T13:27:36.662Z,6.85
2023-01-19T13:30:10.888Z,6.86
2023-01-19T13:32:41.781Z,6.69
2023-01-19T13:35:23.732Z,6.46
2023-01-19T13:38:01.369Z,6.27
2023-01-19T13:40:37.612Z,6.23
2023-01-19T13:43:15.581Z,6.02
2023-01-19T13:45:53.648Z,5.90
2023-01-19T13:48:28.735Z,5.53
2023-01-19T13:51:22.978Z,5.57
2023-01-19T13:54:01.589Z,5.50
2023-01-19T13:56:35.990Z,5.45
2023-01-19T13:59:15.112Z,5.45
2023-01-19T14:01:51.857Z,5.44
2023-01-19T14:04:31.764Z,5.49
2023-01-19T14:07:03.444Z,5.46
2023-01-19T14:09:32.195Z,5.35
2023-01-19T14:12:12.448Z,5.36
2023-01-19T14:14:44.462Z,5.29
2023-01-19T14:17:26.107Z,5.19
2023-01-19T14:20:01.074Z,5.16
2023-01-19T14:22:47.835Z,4.78
2023-01-19T14:25:27.569Z,5.00
2023-01-19T14:28:10.455Z,4.84
2023-01-19T14:30:39.847Z,4.84
2023-01-19T14:33:33.516Z,4.70
2023-01-19T14:36:11.113Z,4.76
2023-01-19T14:38:39.833Z,4.66
2023-01-19T14:41:13.066Z,4.62
2023-01-19T14:43:44.269Z,4.30
2023-01-19T14:46:19.904Z,4.44
2023-01-19T14:48:48.749Z,4.38
2023-01-19T14:51:18.773Z,4.36
2023-01-19T14:53:52.787Z,4.41
2023-01-19T14:56:31.272Z,4.39
2023-01-19T14:59:03.395Z,4.27
2023-01-19T15:01:38.709Z,4.31
2023-01-19T15:04:09.041Z,4.40
2023-01-19T15:06:47.490Z,4.32
2023-01-19T15:09:16.707Z,4.26
2023-01-19T15:11:54.535Z,4.25
2023-01-19T15:14:24.878Z,4.27
2023-01-19T15:16:58.022Z,4.16
2023-01-19T15:19:30.598Z,4.14
2023-01-19T15:22:03.548Z,4.15
2023-01-19T15:24:35.723Z,4.19
2023-01-19T15:27:06.541Z,4.14
2023-01-19T15:29:39.403Z,4.18
2023-01-19T15:35:20.770Z,4.09
2023-01-19T15:40:51.676Z,4.05
2023-01-19T15:43:23.417Z,4.02
2023-01-19T15:45:55.898Z,3.91
2023-01-19T15:48:23.990Z,3.85
2023-01-19T15:50:52.038Z,3.83
2023-01-19T15:53:25.069Z,3.75
2023-01-19T15:55:55.561Z,3.73
2023-01-19T15:58:32.012Z,3.56
2023-01-19T16:01:01.851Z,3.47
2023-01-19T16:03:30.450Z,3.41
2023-01-19T16:06:01.060Z,3.34
2023-01-19T16:08:29.750Z,3.22
2023-01-19T16:10:58.520Z,3.14
2023-01-19T16:13:30.718Z,3.03
2023-01-19T16:16:02.726Z,2.92
2023-01-19T16:18:33.781Z,2.82
2023-01-19T16:21:02.097Z,2.74
2023-01-19T16:23:33.836Z,2.66
2023-01-19T16:26:05.178Z,2.58
2023-01-19T16:28:33.345Z,2.45
2023-01-19T16:31:03.443Z,2.33
2023-01-19T16:33:31.952Z,2.22
2023-01-19T16:36:01.014Z,2.06
2023-01-19T16:38:29.107Z,1.95
2023-01-19T16:40:57.175Z,1.79
2023-01-19T16:43:28.244Z,1.64
2023-01-19T16:45:59.060Z,1.51
2023-01-19T16:48:29.068Z,1.34
2023-01-19T16:51:00.965Z,1.18
2023-01-19T16:53:29.287Z,0.98
2023-01-19T16:55:57.404Z,0.88
2023-01-19T16:58:25.657Z,0.73
2023-01-19T17:00:54.074Z,0.66
2023-01-19T17:03:24.498Z,0.47
2023-01-19T17:05:54.499Z,0.21
2023-01-19T17:08:22.990Z,0.15
2023-01-19T17:10:51.360Z,-0.07
2023-01-19T17:13:19.577Z,-0.13
2023-01-19T17:15:47.871Z,-0.21
2023-01-19T17:18:16.021Z,-0.26
2023-01-19T17:20:44.075Z,-0.29
2023-01-19T17:23:13.561Z,-0.36
2023-01-19T17:25:41.993Z,-0.42
2023-01-19T17:28:10.061Z,-0.57
2023-01-19T17:30:38.275Z,-0.67
2023-01-19T17:33:06.368Z,-0.74
2023-01-19T17:35:35.226Z,-0.82
2023-01-19T17:38:03.399Z,-0.90
2023-01-19T17:40:32.883Z,-0.93
2023-01-19T17:43:01.409Z,-0.98
2023-01-19T17:45:29.521Z,-1.05
2023-01-19T17:47:58.116Z,-1.12
2023-01-19T17:50:26.331Z,-1.19
2023-01-19T17:52:54.370Z,-1.22
2023-01-19T17:55:22.544Z,-1.26
2023-01-19T17:57:53.086Z,-1.34
2023-01-19T18:00:21.640Z,-1.45
2023-01-19T18:02:50.257Z,-1.58
2023-01-19T18:05:18.431Z,-1.60
2023-01-19T18:07:46.637Z,-1.67
2023-01-19T18:10:15.763Z,-1.69
2023-01-19T18:12:45.290Z,-1.71
2023-01-19T18:15:16.837Z,-1.75
2023-01-19T18:17:45.346Z,-1.78
2023-01-19T18:20:13.974Z,-1.81
2023-01-19T18:22:42.571Z,-1.89
2023-01-19T18:25:11.149Z,-1.94
2023-01-19T18:27:39.245Z,-2.01
2023-01-19T18:30:07.983Z,-2.07
2023-01-19T18:32:37.157Z,-2.11
2023-01-19T18:35:08.925Z,-2.12
2023-01-19T18:37:37.116Z,-2.15
2023-01-19T18:40:05.705Z,-2.18
2023-01-19T18:42:35.348Z,-2.22
2023-01-19T18:45:03.481Z,-2.24
2023-01-19T18:47:33.570Z,-2.29
2023-01-19T18:50:01.763Z,-2.34
2023-01-19T18:52:32.407Z,-2.36
2023-01-19T18:55:00.927Z,-2.37
2023-01-19T18:57:29.369Z,-2.39
2023-01-19T18:59:57.654Z,-2.43
2023-01-19T19:02:25.800Z,-2.45
2023-01-19T19:04:54.154Z,-2.54
2023-01-19T19:07:22.317Z,-2.58
2023-01-19T19:09:51.932Z,-2.63
2023-01-19T19:12:19.965Z,-2.71
2023-01-19T19:14:48.129Z,-2.71
2023-01-19T19:17:16.218Z,-2.75
2023-01-19T19:19:44.435Z,-2.80
2023-01-19T19:22:12.517Z,-2.83
2023-01-19T19:24:41.553Z,-2.84
2023-01-19T19:27:14.399Z,-2.87
2023-01-19T19:29:44.085Z,-2.90
2023-01-19T19:32:12.470Z,-2.94
2023-01-19T19:34:40.782Z,-2.95
2023-01-19T19:37:08.995Z,-2.96
2023-01-19T19:39:38.407Z,-3.03
2023-01-19T19:42:06.444Z,-3.06
2023-01-19T19:44:35.987Z,-3.09
2023-01-19T19:47:04.394Z,-3.14
2023-01-19T19:49:32.506Z,-3.12
2023-01-19T19:52:00.561Z,-3.11
2023-01-19T19:54:28.859Z,-3.08
2023-01-19T19:56:56.906Z,-3.09
2023-01-19T19:59:24.998Z,-3.11
2023-01-19T20:01:55.326Z,-3.15
2023-01-19T20:04:25.707Z,-3.19
2023-01-19T20:06:54.071Z,-3.19
2023-01-19T20:09:22.528Z,-3.19
2023-01-19T20:11:52.398Z,-3.23
2023-01-19T20:14:22.574Z,-3.21
2023-01-19T20:16:50.915Z,-3.28
2023-01-19T20:19:20.412Z,-3.35
2023-01-19T20:21:48.528Z,-3.40
2023-01-19T20:24:18.033Z,-3.39
2023-01-19T20:26:46.992Z,-3.40
2023-01-19T20:29:15.100Z,-3.38
2023-01-19T20:31:45.196Z,-3.38
2023-01-19T20:34:14.592Z,-3.37
2023-01-19T20:36:46.911Z,-3.36
2023-01-19T20:39:15.184Z,-3.39
2023-01-19T20:41:46.523Z,-3.43
2023-01-19T20:44:20.297Z,-3.44
2023-01-19T20:46:56.266Z,-3.41
2023-01-19T20:49:26.914Z,-3.38
2023-01-19T20:52:03.065Z,-3.38
2023-01-19T20:54:36.339Z,-3.46
2023-01-19T20:57:11.001Z,-3.48
2023-01-19T20:59:44.579Z,-3.46
2023-01-19T21:02:19.593Z,-3.48
2023-01-19T21:04:56.050Z,-3.50
2023-01-19T21:07:32.097Z,-3.50
2023-01-19T21:10:06.714Z,-3.50
2023-01-19T21:12:41.610Z,-3.55
2023-01-19T21:15:11.708Z,-3.61
2023-01-19T21:17:45.239Z,-3.66
2023-01-19T21:20:22.897Z,-3.70
2023-01-19T21:23:02.286Z,-3.73
2023-01-19T21:25:37.664Z,-3.78
2023-01-19T21:28:08.162Z,-3.82
2023-01-19T21:30:43.609Z,-3.30
2023-01-19T21:33:19.576Z,-3.10
2023-01-19T21:35:54.117Z,-2.93
2023-01-19T21:38:25.058Z,-2.83
2023-01-19T21:40:53.749Z,-2.78
2023-01-19T21:43:21.897Z,-2.74
2023-01-19T21:45:50.087Z,-2.76
2023-01-19T21:48:19.819Z,-2.72
2023-01-19T21:50:56.862Z,-2.76
2023-01-19T21:53:26.831Z,-2.80
2023-01-19T21:55:54.888Z,-2.83
2023-01-19T21:58:24.264Z,-2.90
2023-01-19T22:00:52.418Z,-2.99
2023-01-19T22:03:20.757Z,-3.02
2023-01-19T22:05:48.934Z,-3.12
2023-01-19T22:08:17.252Z,-3.18
2023-01-19T22:10:47.051Z,-3.21
2023-01-19T22:13:15.396Z,-3.24
2023-01-19T22:15:43.808Z,-3.28
2023-01-19T22:18:12.348Z,-3.32
2023-01-19T22:20:40.731Z,-3.39
2023-01-19T22:23:08.909Z,-3.40
2023-01-19T22:25:37.144Z,-3.43
2023-01-19T22:28:06.655Z,-3.47
2023-01-19T22:30:35.419Z,-3.48
2023-01-19T22:33:03.852Z,-3.52
2023-01-19T22:35:32.041Z,-3.56
2023-01-19T22:38:00.284Z,-3.60
2023-01-19T22:40:29.035Z,-3.63
2023-01-19T22:42:57.182Z,-3.66
2023-01-19T22:45:26.715Z,-3.67
2023-01-19T22:47:54.774Z,-3.68
2023-01-19T22:50:22.935Z,-3.69
2023-01-19T22:52:51.350Z,-3.68
2023-01-19T22:55:19.857Z,-3.69
2023-01-19T22:57:48.413Z,-3.72
2023-01-19T23:00:17.305Z,-3.74
2023-01-19T23:02:53.261Z,-3.79
2023-01-19T23:05:29.322Z,-3.82
2023-01-19T23:08:04.346Z,-3.85
2023-01-19T23:10:39.227Z,-3.85
2023-01-19T23:13:10.106Z,-3.86
2023-01-19T23:15:45.087Z,-3.85
2023-01-19T23:18:17.407Z,-3.84
2023-01-19T23:20:51.015Z,-3.85
2023-01-19T23:23:40.738Z,-3.86
2023-01-19T23:26:11.316Z,-3.87
2023-01-19T23:28:43.942Z,-3.88
2023-01-19T23:31:25.511Z,-3.90
2023-01-19T23:34:02.277Z,-3.91
2023-01-19T23:36:38.986Z,-3.91
2023-01-19T23:39:14.700Z,-3.92
2023-01-19T23:41:46.322Z,-3.92
2023-01-19T23:44:20.747Z,-3.92
2023-01-19T23:46:55.662Z,-3.92
2023-01-19T23:49:35.217Z,-3.92
2023-01-19T23:52:05.908Z,-3.91
2023-01-19T23:54:40.235Z,-3.91
2023-01-19T23:57:12.753Z,-3.92
2023-01-19T23:59:47.242Z,-3.93
